Time;durP1;ratioP1;P1;durP2;ratioP2;P2;SDS_P1;SDS_P2;PMS_P1;PMS_P2;Temp;Humidity;BMP_temperature;BMP_pressure;BME280_temperature;BME280_humidity;BME280_pressure;Samples;Min_cycle;Max_cycle;Signal;HPM_P1;HPM_P2
2024/01/04 00:01:27;;;;;;;1.27;0.47;;;;;;;9.50;100.00;98539.44;8308761;28;20495;-60
2024/01/04 00:05:28;;;;;;;3.65;0.55;;;;;;;9.48;100.00;98552.25;8308052;28;20033;-59
2024/01/04 00:09:28;;;;;;;2.47;0.63;;;;;;;9.40;100.00;98552.31;8311079;28;20044;-59
2024/01/04 00:13:30;;;;;;;1.35;0.50;;;;;;;9.39;100.00;98553.31;8303239;28;20550;-59
2024/01/04 00:17:31;;;;;;;2.90;0.80;;;;;;;9.36;100.00;98561.78;8301752;28;20298;-60
2024/01/04 00:21:31;;;;;;;2.53;0.50;;;;;;;9.41;100.00;98575.56;8301345;28;20558;-60
2024/01/04 00:25:31;;;;;;;4.78;0.90;;;;;;;9.39;100.00;98583.00;8299063;28;20037;-59
2024/01/04 00:29:32;;;;;;;2.40;0.50;;;;;;;9.39;100.00;98588.38;8350792;28;20527;-57
2024/01/04 00:33:32;;;;;;;2.67;0.88;;;;;;;9.43;100.00;98597.81;8357301;28;20040;-57
2024/01/04 00:37:33;;;;;;;7.78;1.00;;;;;;;9.47;100.00;98596.41;8357000;28;20037;-59
2024/01/04 00:41:33;;;;;;;4.93;0.80;;;;;;;9.48;100.00;98598.09;8356980;28;20037;-60
2024/01/04 00:45:34;;;;;;;4.22;0.95;;;;;;;9.53;100.00;98603.78;8357301;28;20120;-60
2024/01/04 00:49:34;;;;;;;3.92;0.93;;;;;;;9.56;100.00;98603.44;8357129;28;20037;-60
2024/01/04 00:53:35;;;;;;;5.78;1.45;;;;;;;9.67;100.00;98620.03;8325083;28;20507;-59
2024/01/04 00:57:35;;;;;;;5.60;1.20;;;;;;;9.66;100.00;98617.50;8302028;28;20297;-58
2024/01/04 01:01:35;;;;;;;4.55;1.10;;;;;;;9.69;100.00;98633.31;8284311;28;20359;-59
2024/01/04 01:05:37;;;;;;;7.20;1.20;;;;;;;9.68;100.00;98637.91;8300953;28;20123;-59
2024/01/04 01:09:38;;;;;;;3.17;0.98;;;;;;;9.65;100.00;98650.91;8301399;28;20056;-60
2024/01/04 01:13:38;;;;;;;7.03;1.25;;;;;;;9.66;100.00;98649.88;8304253;28;20711;-57
2024/01/04 01:17:39;;;;;;;6.00;1.33;;;;;;;9.73;100.00;98658.94;8356646;28;20083;-58
2024/01/04 01:21:41;;;;;;;8.43;1.25;;;;;;;9.80;100.00;98668.00;8355438;28;20060;-58
2024/01/04 01:25:41;;;;;;;9.13;1.73;;;;;;;9.84;100.00;98663.91;8318554;28;20265;-60
2024/01/04 01:29:42;;;;;;;4.18;1.42;;;;;;;9.89;100.00;98677.69;8282037;28;20192;-59
2024/01/04 01:33:44;;;;;;;7.35;2.03;;;;;;;9.96;100.00;98689.44;8260474;28;20227;-59
2024/01/04 01:37:44;;;;;;;8.10;1.92;;;;;;;10.00;100.00;98696.16;8260562;28;20226;-59
2024/01/04 01:41:45;;;;;;;9.98;2.00;;;;;;;9.96;100.00;98705.63;8264830;28;20091;-59
2024/01/04 01:45:46;;;;;;;8.50;1.58;;;;;;;9.94;100.00;98707.66;8260982;28;20594;-59
2024/01/04 01:49:47;;;;;;;10.23;1.90;;;;;;;9.93;100.00;98714.09;8264365;28;20139;-60
2024/01/04 01:53:49;;;;;;;6.55;1.60;;;;;;;9.84;100.00;98728.66;8292829;28;20345;-59
2024/01/04 01:57:50;;;;;;;10.55;1.92;;;;;;;9.84;100.00;98736.75;8326492;28;20395;-57
2024/01/04 02:01:51;;;;;;;9.15;1.73;;;;;;;9.85;100.00;98746.53;8358567;28;20106;-57
2024/01/04 02:05:51;;;;;;;4.93;1.40;;;;;;;9.88;100.00;98755.13;8362425;28;20033;-57
2024/01/04 02:09:52;;;;;;;8.48;2.20;;;;;;;9.89;100.00;98764.88;8361931;28;20037;-57
2024/01/04 02:13:52;;;;;;;15.90;1.88;;;;;;;9.92;100.00;98771.81;8362126;28;20463;-57
2024/01/04 02:17:53;;;;;;;4.70;1.50;;;;;;;9.95;100.00;98784.94;8362246;28;20119;-58
2024/01/04 02:21:54;;;;;;;5.47;1.55;;;;;;;9.94;100.00;98788.63;8361604;28;20124;-57
2024/01/04 02:25:54;;;;;;;5.50;1.70;;;;;;;10.04;100.00;98794.66;8361721;28;20059;-58
2024/01/04 02:29:54;;;;;;;7.13;1.50;;;;;;;10.08;100.00;98806.81;8361206;28;20041;-57
2024/01/04 02:33:55;;;;;;;4.32;1.10;;;;;;;10.12;100.00;98816.22;8361823;28;20045;-58
2024/01/04 02:37:55;;;;;;;6.10;1.20;;;;;;;10.14;100.00;98819.59;8361336;28;20479;-60
2024/01/04 02:41:56;;;;;;;7.47;1.48;;;;;;;10.11;100.00;98828.06;8361021;28;20043;-59
2024/01/04 02:45:57;;;;;;;5.55;1.63;;;;;;;10.11;100.00;98833.44;8343303;28;20056;-58
2024/01/04 02:49:57;;;;;;;6.20;1.50;;;;;;;10.09;100.00;98848.16;8359901;28;20139;-58
2024/01/04 02:53:57;;;;;;;8.02;1.65;;;;;;;10.11;100.00;98851.50;8320909;28;20274;-60
2024/01/04 02:57:59;;;;;;;6.60;1.42;;;;;;;10.09;100.00;98861.66;8286499;28;20251;-61
2024/01/04 03:02:00;;;;;;;15.00;2.80;;;;;;;10.03;100.00;98873.94;8260151;28;20103;-60
2024/01/04 03:06:01;;;;;;;4.70;1.50;;;;;;;9.97;100.00;98875.50;8253245;28;20287;-60
2024/01/04 03:10:01;;;;;;;5.90;1.60;;;;;;;9.94;100.00;98875.00;8258552;28;20170;-60
2024/01/04 03:14:02;;;;;;;5.20;1.50;;;;;;;9.97;100.00;98888.16;8261498;28;20446;-60
2024/01/04 03:18:02;;;;;;;6.55;1.10;;;;;;;9.93;100.00;98892.22;8257736;28;20045;-60
2024/01/04 03:22:03;;;;;;;6.00;1.58;;;;;;;9.99;100.00;98905.03;8290338;28;20361;-60
2024/01/04 03:26:04;;;;;;;9.15;1.90;;;;;;;10.00;100.00;98906.69;8327308;28;20506;-59
2024/01/04 03:30:07;;;;;;;4.35;1.27;;;;;;;10.02;100.00;98916.31;8359774;28;20033;-58
2024/01/04 03:34:08;;;;;;;4.80;1.13;;;;;;;10.00;100.00;98912.09;8338052;28;20479;-57
2024/01/04 03:38:08;;;;;;;5.78;1.13;;;;;;;9.98;100.00;98930.34;8359945;28;20473;-58
2024/01/04 03:42:09;;;;;;;11.35;1.65;;;;;;;9.96;100.00;98932.38;8358689;28;20534;-58
2024/01/04 03:46:10;;;;;;;6.18;1.60;;;;;;;9.95;100.00;98947.72;8359099;28;20573;-59
2024/01/04 03:50:11;;;;;;;8.07;2.05;;;;;;;9.95;100.00;98946.91;8355156;28;20036;-58
2024/01/04 03:54:11;;;;;;;6.38;2.88;;;;;;;9.98;100.00;98951.94;8360758;28;20047;-57
2024/01/04 03:58:11;;;;;;;9.50;2.97;;;;;;;9.95;100.00;98936.09;8358898;28;20095;-57
2024/01/04 04:02:12;;;;;;;8.25;2.55;;;;;;;10.04;100.00;98951.25;8357585;28;20044;-58
2024/01/04 04:06:13;;;;;;;9.27;3.05;;;;;;;10.02;100.00;98964.91;8358405;28;20125;-58
2024/01/04 04:10:14;;;;;;;11.32;2.67;;;;;;;10.06;100.00;98970.78;8358167;28;20442;-58
2024/01/04 04:14:15;;;;;;;10.07;2.60;;;;;;;10.10;100.00;98961.38;8358255;28;20519;-58
2024/01/04 04:18:15;;;;;;;15.88;2.85;;;;;;;10.12;100.00;98970.13;8358046;28;20482;-57
2024/01/04 04:22:16;;;;;;;11.68;2.90;;;;;;;10.10;100.00;98979.44;8339317;28;20423;-59
2024/01/04 04:26:19;;;;;;;4.78;2.10;;;;;;;10.13;100.00;98990.72;8353385;28;20418;-60
2024/01/04 04:30:19;;;;;;;3.78;1.70;;;;;;;10.09;100.00;98989.38;8283953;28;20387;-60
2024/01/04 04:34:20;;;;;;;2.85;1.50;;;;;;;10.07;100.00;99002.22;8284201;28;20055;-60
2024/01/04 04:38:21;;;;;;;2.78;1.42;;;;;;;10.07;100.00;99012.19;8260091;28;20553;-60
2024/01/04 04:42:22;;;;;;;2.30;0.80;;;;;;;9.92;100.00;99006.63;8259085;28;20096;-60
2024/01/04 04:46:22;;;;;;;2.83;0.90;;;;;;;9.82;100.00;99005.97;8273977;28;20267;-60
2024/01/04 04:50:23;;;;;;;4.28;0.80;;;;;;;9.68;100.00;99009.38;8297694;28;20036;-60
2024/01/04 04:54:24;;;;;;;3.95;1.10;;;;;;;9.57;100.00;99017.81;8299652;28;20068;-60
2024/01/04 04:58:25;;;;;;;2.88;0.80;;;;;;;9.43;100.00;99022.03;8289677;28;20244;-61
2024/01/04 05:02:25;;;;;;;5.53;1.10;;;;;;;9.38;100.00;99023.56;8276278;28;20555;-61
2024/01/04 05:06:26;;;;;;;3.10;0.73;;;;;;;9.27;100.00;99029.34;8309736;28;20138;-61
2024/01/04 05:10:26;;;;;;;2.67;0.43;;;;;;;9.22;100.00;99034.38;8316474;28;20096;-59
2024/01/04 05:14:26;;;;;;;1.83;0.45;;;;;;;9.24;100.00;99043.16;8293202;28;20362;-59
2024/01/04 05:18:27;;;;;;;1.30;0.30;;;;;;;9.24;100.00;99037.75;8293217;28;20041;-60
2024/01/04 05:22:28;;;;;;;2.22;0.50;;;;;;;9.24;100.00;99048.53;8301062;28;20056;-60
2024/01/04 05:26:28;;;;;;;1.50;0.60;;;;;;;9.23;100.00;99065.72;8311182;28;20040;-60
2024/01/04 05:30:29;;;;;;;0.95;0.70;;;;;;;9.20;100.00;99064.19;8353114;28;20122;-61
2024/01/04 05:34:32;;;;;;;2.47;0.60;;;;;;;9.18;100.00;99081.56;8351528;28;20136;-60
2024/01/04 05:38:32;;;;;;;2.33;0.60;;;;;;;9.17;100.00;99082.56;8352284;28;20167;-61
2024/01/04 05:42:32;;;;;;;2.35;0.95;;;;;;;9.12;100.00;99076.84;8351247;28;20041;-61
2024/01/04 05:46:33;;;;;;;3.08;1.40;;;;;;;9.11;100.00;99086.75;8337482;28;20061;-60
2024/01/04 05:50:34;;;;;;;1.92;1.05;;;;;;;9.11;100.00;99086.75;8370962;28;20025;-61
2024/01/04 05:54:34;;;;;;;3.05;1.13;;;;;;;9.15;100.00;99082.72;8355699;28;20033;-61
2024/01/04 05:58:35;;;;;;;1.35;0.80;;;;;;;9.16;100.00;99099.75;8355446;28;20043;-61
2024/01/04 06:02:35;;;;;;;1.90;1.05;;;;;;;9.20;100.00;99111.88;8355728;28;20045;-61
2024/01/04 06:06:36;;;;;;;2.30;0.93;;;;;;;9.19;100.00;99110.19;8337046;28;20088;-60
2024/01/04 06:10:36;;;;;;;3.25;1.55;;;;;;;9.25;100.00;99114.94;8353601;28;20033;-60
2024/01/04 06:14:37;;;;;;;6.43;1.17;;;;;;;9.25;100.00;99110.38;8306102;28;20178;-60
2024/01/04 06:18:37;;;;;;;3.55;1.15;;;;;;;9.28;100.00;99115.44;8300003;28;20040;-60
2024/01/04 06:22:39;;;;;;;6.05;2.25;;;;;;;9.33;100.00;99109.56;8300342;28;20095;-59
2024/01/04 06:26:39;;;;;;;5.40;2.40;;;;;;;9.53;100.00;99119.00;8293403;28;20263;-59
2024/01/04 06:30:40;;;;;;;6.55;2.08;;;;;;;9.57;100.00;99131.13;8277706;28;20044;-60
2024/01/04 06:34:41;;;;;;;7.22;2.33;;;;;;;9.61;100.00;99137.88;8277488;28;20182;-60
2024/01/04 06:38:42;;;;;;;4.25;2.67;;;;;;;9.58;100.00;99149.03;8298201;28;20044;-60
2024/01/04 06:42:44;;;;;;;6.10;2.45;;;;;;;9.53;100.00;99156.75;8271466;28;20239;-59
2024/01/04 06:46:45;;;;;;;11.63;3.03;;;;;;;9.54;100.00;99163.84;8292456;28;20752;-60
2024/01/04 06:50:46;;;;;;;6.15;2.42;;;;;;;9.46;100.00;99166.53;8262662;28;20757;-60
2024/01/04 06:54:47;;;;;;;5.68;2.22;;;;;;;9.44;100.00;99171.25;8262965;28;20170;-60
2024/01/04 06:58:47;;;;;;;5.53;2.92;;;;;;;9.41;100.00;99174.28;8262385;28;20181;-60
2024/01/04 07:02:48;;;;;;;5.57;2.35;;;;;;;9.35;100.00;99169.53;8260843;28;20440;-60
2024/01/04 07:06:48;;;;;;;11.75;3.20;;;;;;;9.33;100.00;99176.97;8302782;28;20033;-60
2024/01/04 07:10:49;;;;;;;12.77;2.95;;;;;;;9.37;100.00;99189.09;8303262;28;20037;-60
2024/01/04 07:14:49;;;;;;;6.60;2.67;;;;;;;9.35;100.00;99197.38;8307347;28;20105;-63
2024/01/04 07:18:50;;;;;;;8.65;3.28;;;;;;;9.38;100.00;99204.28;8341711;28;20048;-61
2024/01/04 07:22:52;;;;;;;5.00;3.20;;;;;;;9.39;100.00;99214.91;8358898;28;20090;-60
2024/01/04 07:26:53;;;;;;;5.97;2.88;;;;;;;9.38;100.00;99215.06;8361190;28;20036;-61
2024/01/04 07:30:54;;;;;;;9.25;2.97;;;;;;;9.45;100.00;99221.47;8363870;28;20068;-60
2024/01/04 07:34:54;;;;;;;8.05;2.92;;;;;;;9.45;100.00;99240.34;8358902;28;20064;-60
2024/01/04 07:38:58;;;;;;;13.27;2.50;;;;;;;9.48;100.00;99229.22;8360975;28;20124;-61
2024/01/04 07:42:58;;;;;;;13.82;3.00;;;;;;;9.52;100.00;99227.91;8335413;28;20079;-60
2024/01/04 07:46:59;;;;;;;7.38;2.10;;;;;;;9.61;100.00;99243.13;8358728;28;20503;-60
2024/01/04 07:51:01;;;;;;;4.65;2.38;;;;;;;9.71;100.00;99257.28;8356374;28;20037;-60
2024/01/04 07:55:01;;;;;;;7.13;2.00;;;;;;;9.76;100.00;99249.56;8358137;28;20500;-61
2024/01/04 07:59:02;;;;;;;9.32;2.30;;;;;;;9.86;100.00;99244.84;8356301;28;20352;-60
2024/01/04 08:03:03;;;;;;;6.88;1.83;;;;;;;9.95;100.00;99249.22;8357061;28;20558;-60
2024/01/04 08:07:04;;;;;;;9.00;1.77;;;;;;;9.99;100.00;99255.97;8357863;28;20429;-60
2024/01/04 08:11:04;;;;;;;5.20;1.38;;;;;;;10.06;100.00;99254.28;8356681;28;20033;-59
2024/01/04 08:15:05;;;;;;;5.13;1.10;;;;;;;10.13;100.00;99266.16;8357542;28;20033;-60
2024/01/04 08:19:06;;;;;;;3.75;1.17;;;;;;;10.17;100.00;99270.19;8357429;28;20041;-60
2024/01/04 08:23:06;;;;;;;4.80;1.38;;;;;;;10.25;100.00;99272.91;8357448;28;20482;-59
2024/01/04 08:27:06;;;;;;;5.15;1.13;;;;;;;10.24;100.00;99282.00;8357021;28;20037;-60
2024/01/04 08:31:07;;;;;;;7.28;1.20;;;;;;;10.25;100.00;99291.81;8352635;28;20045;-59
2024/01/04 08:35:08;;;;;;;13.00;1.63;;;;;;;10.23;100.00;99285.72;8355487;28;20064;-60
2024/01/04 08:39:10;;;;;;;6.10;1.33;;;;;;;10.22;100.00;99294.84;8358244;28;20040;-59
2024/01/04 08:43:11;;;;;;;4.80;1.23;;;;;;;10.24;100.00;99298.22;8366510;28;20521;-60
2024/01/04 08:47:11;;;;;;;4.82;1.30;;;;;;;10.23;100.00;99299.22;8375098;28;20384;-60
2024/01/04 08:51:11;;;;;;;8.02;1.73;;;;;;;10.29;100.00;99301.25;8375633;28;20056;-60
2024/01/04 08:55:13;;;;;;;4.97;1.33;;;;;;;10.33;100.00;99304.44;8376182;28;20045;-59
2024/01/04 08:59:14;;;;;;;5.60;1.25;;;;;;;10.37;100.00;99301.25;8376641;28;20080;-60
2024/01/04 09:03:14;;;;;;;6.95;1.92;;;;;;;10.53;100.00;99314.78;8372157;28;20094;-59
2024/01/04 09:07:15;;;;;;;6.03;1.23;;;;;;;10.56;100.00;99322.53;8354810;28;20048;-60
2024/01/04 09:11:16;;;;;;;6.63;1.83;;;;;;;10.56;100.00;99319.84;8353768;28;20041;-60
2024/01/04 09:15:17;;;;;;;10.70;1.83;;;;;;;10.54;100.00;99327.25;8369510;28;20401;-60
2024/01/04 09:19:19;;;;;;;3.53;1.10;;;;;;;10.51;100.00;99338.41;8343237;28;20033;-59
2024/01/04 09:23:21;;;;;;;3.63;1.60;;;;;;;10.52;100.00;99342.78;8345622;28;20052;-60
2024/01/04 09:27:23;;;;;;;5.57;1.42;;;;;;;10.54;100.00;99338.06;8333540;28;20075;-60
2024/01/04 09:31:24;;;;;;;6.45;1.83;;;;;;;10.57;100.00;99348.53;8355097;28;20617;-60
2024/01/04 09:35:25;;;;;;;5.07;1.50;;;;;;;10.62;100.00;99350.72;8358499;28;20478;-60
2024/01/04 09:39:25;;;;;;;4.20;1.67;;;;;;;10.69;100.00;99368.81;8368499;28;20414;-60
2024/01/04 09:43:29;;;;;;;4.07;1.23;;;;;;;10.74;100.00;99365.59;8342022;28;20048;-59
2024/01/04 09:47:31;;;;;;;5.10;1.30;;;;;;;10.82;100.00;99361.03;8327906;28;20045;-60
2024/01/04 09:51:34;;;;;;;4.13;1.13;;;;;;;10.94;99.77;99370.47;8363537;28;20048;-61
2024/01/04 09:55:36;;;;;;;3.97;1.50;;;;;;;11.02;100.00;99375.88;8371054;28;20033;-60
2024/01/04 09:59:38;;;;;;;5.90;1.58;;;;;;;11.89;96.19;99370.38;8367147;28;20050;-60
2024/01/04 10:03:42;;;;;;;6.80;1.70;;;;;;;12.89;89.19;99387.31;8371697;28;20482;-60
2024/01/04 10:07:49;;;;;;;2.92;1.40;;;;;;;11.96;91.44;99393.03;8369969;28;20143;-60
2024/01/04 10:12:02;;;;;;;5.38;1.30;;;;;;;11.57;95.40;99392.13;8371487;28;20063;-61
2024/01/04 10:16:05;;;;;;;4.80;1.40;;;;;;;11.61;97.74;99394.31;8375539;28;20071;-61
2024/01/04 10:20:07;;;;;;;6.80;0.95;;;;;;;12.20;91.45;99394.75;8374091;28;20118;-59
2024/01/04 10:24:13;;;;;;;3.67;1.02;;;;;;;11.81;91.98;99400.22;8369509;28;20041;-61
2024/01/04 10:28:19;;;;;;;6.03;0.98;;;;;;;11.83;92.45;99399.00;8371734;28;20043;-61
2024/01/04 10:32:19;;;;;;;4.88;1.30;;;;;;;12.03;91.68;99403.97;8373849;28;20060;-60
2024/01/04 10:36:22;;;;;;;5.75;1.05;;;;;;;11.84;91.53;99395.25;8365580;28;20123;-60
2024/01/04 10:40:22;;;;;;;6.93;1.20;;;;;;;11.44;93.25;99402.69;8352927;28;20037;-60
2024/01/04 10:44:23;;;;;;;9.68;1.42;;;;;;;11.04;98.66;99395.47;8366981;28;20043;-61
2024/01/04 10:48:23;;;;;;;6.68;1.15;;;;;;;10.77;100.00;99401.22;8341361;28;20426;-60
2024/01/04 10:52:30;;;;;;;12.60;1.95;;;;;;;10.88;100.00;99400.03;8357575;28;20111;-60
2024/01/04 10:56:32;;;;;;;13.70;2.08;;;;;;;10.87;100.00;99403.78;8351374;28;20494;-60
2024/01/04 11:00:33;;;;;;;15.57;2.65;;;;;;;10.95;100.00;99412.72;8363332;28;20040;-61
2024/01/04 11:04:36;;;;;;;13.38;2.03;;;;;;;10.93;100.00;99414.75;8336205;28;20047;-61
2024/01/04 11:08:39;;;;;;;17.08;2.17;;;;;;;10.89;100.00;99407.97;8369081;28;20266;-59
2024/01/04 11:12:40;;;;;;;14.25;2.88;;;;;;;11.27;100.00;99412.69;8352327;28;20048;-60
2024/01/04 11:17:00;;;;;;;17.30;2.22;;;;;;;12.22;94.55;99408.97;8362871;28;20514;-60
2024/01/04 11:21:41;;;;;;;11.57;2.20;;;;;;;11.85;93.68;99410.50;8364943;28;20033;-58
2024/01/04 11:26:00;;;;;;;16.63;2.50;;;;;;;11.40;94.33;99413.00;8350879;28;20066;-58
2024/01/04 11:30:02;;;;;;;9.45;2.33;;;;;;;11.23;95.98;99415.91;8324404;28;20041;-59
2024/01/04 11:34:04;;;;;;;14.15;2.42;;;;;;;11.25;95.35;99421.97;8370226;28;20046;-59
2024/01/04 11:38:07;;;;;;;12.82;2.40;;;;;;;11.30;94.73;99423.16;8371045;28;20040;-58
2024/01/04 11:42:15;;;;;;;17.80;3.22;;;;;;;11.32;93.73;99413.00;8369340;28;20560;-59
2024/01/04 11:46:19;;;;;;;24.83;4.40;;;;;;;11.44;93.14;99414.31;8367776;28;20326;-60
2024/01/04 11:50:28;;;;;;;12.18;2.80;;;;;;;11.36;93.48;99402.69;8364759;28;20639;-59
2024/01/04 11:54:29;;;;;;;14.38;2.83;;;;;;;11.31;92.07;99414.03;8366271;28;20091;-59
2024/01/04 11:58:30;;;;;;;16.65;1.92;;;;;;;11.30;92.37;99408.78;8368554;28;20037;-58
2024/01/04 12:02:31;;;;;;;14.60;2.17;;;;;;;11.41;90.62;99409.25;8369266;28;20066;-59
2024/01/04 12:06:32;;;;;;;12.73;1.80;;;;;;;11.72;89.27;99401.25;8355582;28;20045;-61
2024/01/04 12:10:33;;;;;;;15.25;2.40;;;;;;;11.77;87.57;99404.25;8338884;28;20048;-59
2024/01/04 12:14:35;;;;;;;15.68;2.08;;;;;;;12.08;86.18;99409.72;8363820;28;20574;-59
2024/01/04 12:18:36;;;;;;;16.40;1.77;;;;;;;12.24;85.46;99417.75;8348545;28;20120;-61
2024/01/04 12:22:39;;;;;;;14.32;2.70;;;;;;;12.09;85.06;99424.94;8366360;28;20531;-61
2024/01/04 12:26:41;;;;;;;17.52;2.22;;;;;;;11.89;85.84;99419.97;8364139;28;20428;-61
2024/01/04 12:30:42;;;;;;;12.85;1.90;;;;;;;11.85;84.39;99417.78;8362398;28;20045;-61
2024/01/04 12:34:45;;;;;;;33.20;11.50;;;;;;;11.84;84.06;99422.34;8364148;28;20055;-60
2024/01/04 12:38:45;;;;;;;20.13;4.50;;;;;;;11.79;85.53;99419.34;8360158;28;20151;-61
2024/01/04 12:42:46;;;;;;;12.18;1.77;;;;;;;11.75;82.88;99423.41;8364560;28;20176;-61
2024/01/04 12:46:46;;;;;;;18.40;3.03;;;;;;;11.55;83.38;99411.25;8348206;28;20045;-61
2024/01/04 12:50:47;;;;;;;19.50;2.38;;;;;;;11.34;84.30;99413.69;8361789;28;20029;-61
2024/01/04 12:54:47;;;;;;;15.30;2.03;;;;;;;11.43;84.82;99409.94;8357985;28;20057;-61
2024/01/04 12:58:49;;;;;;;13.13;1.85;;;;;;;11.37;84.36;99407.94;8367549;28;20152;-59
2024/01/04 13:02:52;;;;;;;18.17;2.38;;;;;;;11.35;85.40;99425.34;8342934;28;20053;-60
2024/01/04 13:06:53;;;;;;;11.77;2.15;;;;;;;11.40;84.95;99406.72;8355390;28;20033;-59
2024/01/04 13:10:56;;;;;;;12.48;1.85;;;;;;;11.44;84.13;99417.03;8329669;28;20125;-59
2024/01/04 13:14:57;;;;;;;8.48;1.70;;;;;;;11.52;84.31;99408.91;8320270;28;20033;-59
2024/01/04 13:18:57;;;;;;;14.07;1.70;;;;;;;11.51;82.74;99415.34;8353275;28;20106;-61
2024/01/04 13:22:58;;;;;;;17.80;2.95;;;;;;;11.55;81.88;99427.50;8349881;28;20565;-60
2024/01/04 13:26:58;;;;;;;20.55;3.30;;;;;;;11.53;81.05;99431.41;8349132;28;20044;-60
2024/01/04 13:30:59;;;;;;;12.57;1.92;;;;;;;11.55;80.92;99437.47;8348971;28;20502;-60
2024/01/04 13:35:00;;;;;;;15.60;3.00;;;;;;;11.44;81.07;99445.97;8352528;28;20091;-58
2024/01/04 13:39:01;;;;;;;12.30;2.10;;;;;;;11.41;81.08;99441.72;8354359;28;20035;-59
2024/01/04 13:43:01;;;;;;;11.43;1.65;;;;;;;11.39;81.64;99443.78;8354401;28;20041;-59
2024/01/04 13:47:02;;;;;;;7.72;2.40;;;;;;;11.43;81.61;99439.72;8354149;28;20110;-59
2024/01/04 13:51:03;;;;;;;7.20;1.30;;;;;;;11.23;80.97;99438.38;8353022;28;20047;-59
2024/01/04 13:55:04;;;;;;;9.30;1.42;;;;;;;11.25;82.05;99444.47;8353727;28;20483;-59
2024/01/04 13:59:06;;;;;;;11.60;1.83;;;;;;;11.18;83.20;99448.88;8351949;28;20041;-61
2024/01/04 14:03:08;;;;;;;11.00;2.03;;;;;;;11.09;84.71;99452.59;8347557;28;20041;-59
2024/01/04 14:07:09;;;;;;;15.40;2.03;;;;;;;10.95;85.57;99461.38;8344607;28;20573;-59
2024/01/04 14:11:09;;;;;;;15.50;2.08;;;;;;;10.91;86.06;99476.25;8350169;28;20505;-59
2024/01/04 14:15:10;;;;;;;12.77;2.17;;;;;;;10.85;87.35;99476.06;8348674;28;20187;-59
2024/01/04 14:19:10;;;;;;;9.98;2.00;;;;;;;10.94;86.87;99486.75;8344513;28;20067;-58
2024/01/04 14:23:12;;;;;;;27.33;4.80;;;;;;;11.04;87.52;99492.00;8339630;28;20551;-59
2024/01/04 14:27:13;;;;;;;17.95;3.33;;;;;;;11.09;87.62;99506.69;8343888;28;20062;-59
2024/01/04 14:31:14;;;;;;;11.75;2.58;;;;;;;11.05;87.30;99499.94;8347196;28;20075;-59
2024/01/04 14:35:14;;;;;;;13.25;2.28;;;;;;;10.96;87.95;99511.78;8345335;28;20064;-59
2024/01/04 14:39:21;;;;;;;13.02;1.90;;;;;;;10.93;88.64;99517.50;8367140;28;20044;-57
2024/01/04 14:43:21;;;;;;;9.55;1.88;;;;;;;10.90;87.85;99515.13;8353025;28;20032;-56
2024/01/04 14:47:22;;;;;;;11.68;2.38;;;;;;;10.86;89.30;99527.28;8352816;28;20522;-58
2024/01/04 14:51:23;;;;;;;12.02;1.85;;;;;;;10.89;88.42;99521.53;8363932;28;20375;-56
2024/01/04 14:55:25;;;;;;;16.25;2.42;;;;;;;10.90;88.69;99517.00;8354392;28;20037;-57
2024/01/04 14:59:27;;;;;;;15.20;2.47;;;;;;;10.92;88.00;99532.03;8370384;28;20040;-59
2024/01/04 15:03:27;;;;;;;15.38;2.75;;;;;;;10.92;87.58;99521.22;8365684;28;20036;-57
2024/01/04 15:07:29;;;;;;;10.68;1.92;;;;;;;10.87;88.78;99522.72;8372169;28;20041;-58
2024/01/04 15:11:31;;;;;;;14.93;1.98;;;;;;;10.87;86.52;99523.59;8369531;28;20036;-56
2024/01/04 15:15:31;;;;;;;12.48;2.50;;;;;;;10.84;88.44;99523.91;8372211;28;20064;-56
2024/01/04 15:19:32;;;;;;;17.02;2.95;;;;;;;10.78;88.98;99530.00;8370069;28;20039;-57
2024/01/04 15:23:35;;;;;;;13.18;1.98;;;;;;;10.75;89.62;99524.06;8368099;28;20092;-58
2024/01/04 15:27:35;;;;;;;11.43;3.03;;;;;;;10.65;90.10;99517.97;8363571;28;20075;-56
2024/01/04 15:31:35;;;;;;;22.98;5.65;;;;;;;10.63;88.75;99520.84;8367066;28;20040;-58
2024/01/04 15:35:36;;;;;;;16.85;3.28;;;;;;;10.57;88.22;99526.91;8365331;28;20069;-57
2024/01/04 15:39:37;;;;;;;12.75;2.10;;;;;;;10.50;87.81;99520.47;8367489;28;20245;-58
2024/01/04 15:43:37;;;;;;;17.92;2.90;;;;;;;10.42;88.66;99533.94;8329599;28;20041;-56
2024/01/04 15:47:38;;;;;;;14.48;2.42;;;;;;;10.43;89.04;99524.81;8318996;28;20128;-57
2024/01/04 15:51:42;;;;;;;14.27;2.72;;;;;;;10.28;89.07;99537.25;8350779;28;20076;-58
2024/01/04 15:55:43;;;;;;;16.70;2.10;;;;;;;10.21;88.76;99530.81;8353745;28;20047;-58
2024/01/04 15:59:43;;;;;;;17.98;2.40;;;;;;;10.12;89.64;99536.34;8353322;28;20033;-59
2024/01/04 16:03:43;;;;;;;12.15;1.75;;;;;;;10.03;89.58;99527.31;8358512;28;20126;-59
2024/01/04 16:07:44;;;;;;;14.30;2.00;;;;;;;9.94;88.92;99530.97;8328049;28;20101;-59
2024/01/04 16:11:45;;;;;;;15.07;2.05;;;;;;;9.91;89.50;99534.00;8348281;28;20037;-59
2024/01/04 16:15:46;;;;;;;16.08;2.45;;;;;;;9.95;89.35;99530.00;8339283;28;20056;-58
2024/01/04 16:19:46;;;;;;;11.90;2.08;;;;;;;10.02;88.92;99531.88;8348741;28;20048;-58
2024/01/04 16:23:47;;;;;;;13.05;1.88;;;;;;;10.06;88.83;99529.69;8350792;28;20045;-58
2024/01/04 16:27:48;;;;;;;15.82;1.98;;;;;;;10.01;88.12;99524.78;8347963;28;20048;-57
2024/01/04 16:31:49;;;;;;;11.98;2.35;;;;;;;10.02;89.29;99518.38;8354843;28;20037;-59
2024/01/04 16:35:50;;;;;;;13.98;2.58;;;;;;;10.01;88.67;99508.56;8336805;28;20681;-58
2024/01/04 16:39:50;;;;;;;16.60;2.50;;;;;;;9.98;89.86;99502.66;8357105;28;20115;-59
2024/01/04 16:43:53;;;;;;;20.70;2.92;;;;;;;9.94;90.04;99510.25;8352085;28;20045;-59
2024/01/04 16:47:55;;;;;;;11.75;1.88;;;;;;;9.83;90.14;99518.59;8350759;28;20483;-59
2024/01/04 16:51:55;;;;;;;15.18;2.20;;;;;;;9.67;89.42;99517.69;8349301;28;20037;-59
2024/01/04 16:55:56;;;;;;;17.40;2.97;;;;;;;9.59;90.40;99517.63;8351912;28;20094;-59
2024/01/04 16:59:56;;;;;;;10.90;2.40;;;;;;;9.45;92.25;99515.50;8329232;28;20047;-57
2024/01/04 17:03:58;;;;;;;12.20;2.15;;;;;;;9.25;92.93;99525.66;8343804;28;20045;-59
2024/01/04 17:07:58;;;;;;;12.13;1.42;;;;;;;9.10;92.96;99527.22;8344670;28;20033;-59
2024/01/04 17:12:00;;;;;;;10.45;1.75;;;;;;;9.00;93.39;99521.03;8354244;28;20041;-58
2024/01/04 17:16:01;;;;;;;12.68;1.70;;;;;;;8.91;93.69;99513.06;8332150;28;20112;-59
2024/01/04 17:20:01;;;;;;;7.68;1.63;;;;;;;8.88;94.08;99510.66;8356232;28;20053;-58
2024/01/04 17:24:02;;;;;;;9.65;2.17;;;;;;;8.82;93.21;99516.66;8353368;28;20045;-59
2024/01/04 17:28:03;;;;;;;13.57;2.08;;;;;;;8.58;94.50;99513.72;8336021;28;20033;-58
2024/01/04 17:32:03;;;;;;;12.18;3.22;;;;;;;8.39;96.95;99509.34;8346906;28;20089;-60
2024/01/04 17:36:06;;;;;;;9.25;2.08;;;;;;;8.28;97.79;99516.75;8349249;28;20082;-60
2024/01/04 17:40:09;;;;;;;18.77;2.97;;;;;;;8.22;97.77;99510.13;8347493;28;20110;-59
2024/01/04 17:44:10;;;;;;;17.30;3.55;;;;;;;8.18;99.06;99505.16;8346067;28;20051;-60
2024/01/04 17:48:10;;;;;;;15.20;3.22;;;;;;;8.15;99.07;99494.69;8347662;28;20037;-58
2024/01/04 17:52:16;;;;;;;17.60;4.15;;;;;;;8.09;99.09;99499.66;8349213;28;20037;-59
2024/01/04 17:56:17;;;;;;;13.70;3.70;;;;;;;8.12;99.18;99500.38;8344293;28;20136;-59
2024/01/04 18:00:19;;;;;;;21.23;4.07;;;;;;;8.04;100.00;99487.66;8344442;28;20044;-59
2024/01/04 18:04:19;;;;;;;15.65;3.88;;;;;;;8.04;100.00;99477.75;8346273;28;20041;-59
2024/01/04 18:08:20;;;;;;;16.25;3.13;;;;;;;7.98;100.00;99481.03;8346802;28;20047;-59
2024/01/04 18:12:21;;;;;;;14.10;3.28;;;;;;;8.00;100.00;99480.91;8363117;28;20511;-59
2024/01/04 18:16:22;;;;;;;18.77;4.45;;;;;;;7.92;100.00;99473.56;8316567;28;20052;-59
2024/01/04 18:20:22;;;;;;;16.50;3.63;;;;;;;7.90;100.00;99467.47;8329136;28;20603;-59
2024/01/04 18:24:23;;;;;;;14.32;2.85;;;;;;;7.76;100.00;99462.63;8353169;28;20045;-60
2024/01/04 18:28:23;;;;;;;12.55;3.30;;;;;;;7.69;100.00;99460.66;8353765;28;20107;-61
2024/01/04 18:32:24;;;;;;;15.40;2.65;;;;;;;7.69;100.00;99450.72;8354182;28;20033;-59
2024/01/04 18:36:24;;;;;;;21.27;3.15;;;;;;;7.70;100.00;99452.44;8354157;28;20048;-61
2024/01/04 18:40:27;;;;;;;15.95;2.80;;;;;;;7.70;100.00;99460.50;8342294;28;20494;-59
2024/01/04 18:44:28;;;;;;;17.50;3.80;;;;;;;7.73;100.00;99457.53;8345554;28;20040;-59
2024/01/04 18:48:29;;;;;;;15.77;3.85;;;;;;;7.77;100.00;99447.28;8358084;28;20511;-60